EZY47LC EGPH-LPPT
Flight info
| Callsign | EZY47LC |
|---|---|
| Flight time | 2h 47m |
| Altitude | 36000 |
| Route | GOSAM DCT TRN DCT BLACA DCT PEPOD DCT NIMAT DCT TUVEN/M079F360 DCT LASNO T9 BEGAS/N0448F370 DCT PINEK DCT XAMAX |
| Aircraft | A320/M-SDE3FGHIRWY/LB1 |
Departure
| Time | 2026-04-26 11:05 |
|---|---|
| Airport | Edinburgh Airport (EGPH) |
Arrival
| Time | 2026-04-26 13:53 |
|---|---|
| Airport | Lisbon Humberto Delgado Airport (LPPT) |
| Time | Latitude | Longitude | Altitude | Speed | Heading |
|---|---|---|---|---|---|
| 2026-04-26 10:45 | 55.95018 | -3.36080 | 107 ft | 0 kts | 249° |
| 2026-04-26 10:56 | 55.95020 | -3.36070 | 107 ft | 4 kts | 249° |
| 2026-04-26 10:56 | 55.95030 | -3.36026 | 104 ft | 4 kts | 249° |
| 2026-04-26 10:57 | 55.95039 | -3.35980 | 105 ft | 4 kts | 251° |
| 2026-04-26 10:57 | 55.95048 | -3.35935 | 106 ft | 4 kts | 255° |
| 2026-04-26 10:57 | 55.95053 | -3.35888 | 104 ft | 4 kts | 268° |
| 2026-04-26 10:57 | 55.95050 | -3.35849 | 105 ft | 0 kts | 299° |
| 2026-04-26 11:00 | 55.95052 | -3.35857 | 106 ft | 3 kts | 297° |
| 2026-04-26 11:01 | 55.95068 | -3.35912 | 106 ft | 7 kts | 297° |
| 2026-04-26 11:01 | 55.95096 | -3.36029 | 105 ft | 13 kts | 287° |
| 2026-04-26 11:01 | 55.95155 | -3.36154 | 104 ft | 14 kts | 4° |
| 2026-04-26 11:01 | 55.95222 | -3.36026 | 100 ft | 16 kts | 57° |
| 2026-04-26 11:02 | 55.95280 | -3.35856 | 102 ft | 16 kts | 59° |
| 2026-04-26 11:02 | 55.95339 | -3.35679 | 102 ft | 17 kts | 59° |
| 2026-04-26 11:02 | 55.95399 | -3.35505 | 105 ft | 15 kts | 58° |
| 2026-04-26 11:02 | 55.95468 | -3.35420 | 103 ft | 14 kts | 352° |
| 2026-04-26 11:03 | 55.95499 | -3.35445 | 101 ft | 0 kts | 327° |
| 2026-04-26 11:03 | 55.95511 | -3.35460 | 101 ft | 6 kts | 326° |
| 2026-04-26 11:03 | 55.95551 | -3.35522 | 101 ft | 8 kts | 303° |
| 2026-04-26 11:04 | 55.95549 | -3.35621 | 102 ft | 8 kts | 248° |
| 2026-04-26 11:04 | 55.95526 | -3.35691 | 103 ft | 5 kts | 238° |
| 2026-04-26 11:04 | 55.95506 | -3.35747 | 102 ft | 8 kts | 238° |
| 2026-04-26 11:04 | 55.95453 | -3.35900 | 100 ft | 45 kts | 237° |
| 2026-04-26 11:05 | 55.95016 | -3.37198 | 106 ft | 134 kts | 238° |
| 2026-04-26 11:05 | 55.94648 | -3.38299 | 164 ft | 165 kts | 239° |
| 2026-04-26 11:05 | 55.94038 | -3.40084 | 833 ft | 169 kts | 238° |
| 2026-04-26 11:05 | 55.93422 | -3.41865 | 1621 ft | 169 kts | 238° |
| 2026-04-26 11:06 | 55.92776 | -3.43729 | 1991 ft | 187 kts | 237° |
| 2026-04-26 11:06 | 55.92064 | -3.45780 | 2399 ft | 199 kts | 238° |
| 2026-04-26 11:06 | 55.91336 | -3.47879 | 2999 ft | 199 kts | 238° |
| 2026-04-26 11:06 | 55.90603 | -3.50130 | 3319 ft | 220 kts | 247° |
| 2026-04-26 11:07 | 55.90217 | -3.52997 | 3686 ft | 245 kts | 259° |
| 2026-04-26 11:07 | 55.89913 | -3.56067 | 4434 ft | 253 kts | 259° |
| 2026-04-26 11:07 | 55.89607 | -3.59185 | 5311 ft | 257 kts | 259° |
| 2026-04-26 11:07 | 55.89292 | -3.62401 | 5818 ft | 261 kts | 259° |
| 2026-04-26 11:08 | 55.88980 | -3.65586 | 5974 ft | 260 kts | 259° |
| 2026-04-26 11:08 | 55.88665 | -3.68764 | 5999 ft | 260 kts | 259° |
| 2026-04-26 11:08 | 55.88343 | -3.71967 | 6000 ft | 260 kts | 259° |
| 2026-04-26 11:08 | 55.88023 | -3.75134 | 5986 ft | 260 kts | 259° |
| 2026-04-26 11:09 | 55.87705 | -3.78296 | 5989 ft | 260 kts | 259° |
| 2026-04-26 11:09 | 55.87389 | -3.81462 | 5991 ft | 260 kts | 259° |
| 2026-04-26 11:09 | 55.87075 | -3.84627 | 5992 ft | 259 kts | 259° |
| 2026-04-26 11:09 | 55.86759 | -3.87786 | 5994 ft | 259 kts | 259° |
| 2026-04-26 11:10 | 55.86443 | -3.90949 | 5992 ft | 260 kts | 259° |
| 2026-04-26 11:10 | 55.86128 | -3.94097 | 5994 ft | 259 kts | 259° |
| 2026-04-26 11:10 | 55.85809 | -3.97275 | 5998 ft | 259 kts | 259° |
| 2026-04-26 11:10 | 55.85489 | -4.00432 | 5997 ft | 259 kts | 259° |
| 2026-04-26 11:11 | 55.85169 | -4.03591 | 6001 ft | 259 kts | 259° |
| 2026-04-26 11:11 | 55.84849 | -4.06748 | 6002 ft | 259 kts | 259° |
| 2026-04-26 11:11 | 55.84462 | -4.09870 | 6004 ft | 258 kts | 251° |
| 2026-04-26 11:11 | 55.83710 | -4.12758 | 6004 ft | 258 kts | 238° |
| 2026-04-26 11:12 | 55.82584 | -4.15265 | 6006 ft | 258 kts | 224° |
| 2026-04-26 11:12 | 55.81161 | -4.17246 | 6005 ft | 259 kts | 215° |
| 2026-04-26 11:12 | 55.79672 | -4.19047 | 6004 ft | 259 kts | 215° |
| 2026-04-26 11:12 | 55.78183 | -4.20864 | 6005 ft | 259 kts | 216° |
| 2026-04-26 11:13 | 55.76708 | -4.22690 | 6003 ft | 259 kts | 216° |
| 2026-04-26 11:13 | 55.75236 | -4.24528 | 6036 ft | 260 kts | 216° |
| 2026-04-26 11:13 | 55.73739 | -4.26398 | 6737 ft | 263 kts | 216° |
| 2026-04-26 11:13 | 55.72242 | -4.28264 | 7635 ft | 263 kts | 216° |
| 2026-04-26 11:14 | 55.70743 | -4.30131 | 8505 ft | 264 kts | 216° |
| 2026-04-26 11:14 | 55.69234 | -4.32007 | 9360 ft | 266 kts | 216° |
| 2026-04-26 11:14 | 55.67719 | -4.33889 | 10221 ft | 267 kts | 215° |
| 2026-04-26 11:14 | 55.66155 | -4.35828 | 10642 ft | 285 kts | 215° |
| 2026-04-26 11:15 | 55.64466 | -4.37916 | 10845 ft | 308 kts | 215° |
| 2026-04-26 11:15 | 55.62648 | -4.40162 | 11140 ft | 325 kts | 215° |
| 2026-04-26 11:15 | 55.60775 | -4.42475 | 11737 ft | 332 kts | 215° |
| 2026-04-26 11:15 | 55.58864 | -4.44825 | 12398 ft | 337 kts | 216° |
| 2026-04-26 11:16 | 55.56928 | -4.47204 | 13062 ft | 341 kts | 216° |
| 2026-04-26 11:16 | 55.54965 | -4.49613 | 13717 ft | 345 kts | 216° |
| 2026-04-26 11:16 | 55.52980 | -4.52047 | 14359 ft | 350 kts | 216° |
| 2026-04-26 11:16 | 55.50971 | -4.54506 | 14960 ft | 353 kts | 216° |
| 2026-04-26 11:17 | 55.48950 | -4.56979 | 15578 ft | 355 kts | 216° |
| 2026-04-26 11:17 | 55.46910 | -4.59470 | 16178 ft | 358 kts | 216° |
| 2026-04-26 11:17 | 55.44856 | -4.61976 | 16784 ft | 360 kts | 216° |
| 2026-04-26 11:17 | 55.42788 | -4.64500 | 17357 ft | 363 kts | 216° |
| 2026-04-26 11:18 | 55.40702 | -4.67041 | 17921 ft | 366 kts | 216° |
| 2026-04-26 11:18 | 55.38599 | -4.69601 | 18471 ft | 369 kts | 216° |
| 2026-04-26 11:18 | 55.36483 | -4.72170 | 18960 ft | 371 kts | 216° |
| 2026-04-26 11:18 | 55.34315 | -4.74791 | 19448 ft | 374 kts | 216° |
| 2026-04-26 11:19 | 55.32164 | -4.77388 | 19922 ft | 377 kts | 216° |
| 2026-04-26 11:19 | 55.29881 | -4.79686 | 20382 ft | 381 kts | 208° |
| 2026-04-26 11:19 | 55.27500 | -4.81776 | 20859 ft | 384 kts | 208° |
| 2026-04-26 11:19 | 55.25101 | -4.83885 | 21307 ft | 387 kts | 208° |
| 2026-04-26 11:20 | 55.22687 | -4.86006 | 21744 ft | 389 kts | 209° |
| 2026-04-26 11:20 | 55.21081 | -4.87415 | 22055 ft | 391 kts | 209° |
| 2026-04-26 11:20 | 55.17809 | -4.90282 | 22647 ft | 395 kts | 209° |
| 2026-04-26 11:20 | 55.15343 | -4.92441 | 23064 ft | 398 kts | 209° |
| 2026-04-26 11:21 | 55.12853 | -4.94616 | 23461 ft | 401 kts | 208° |
| 2026-04-26 11:21 | 55.10348 | -4.96800 | 23882 ft | 403 kts | 209° |
| 2026-04-26 11:21 | 55.07833 | -4.98991 | 24248 ft | 405 kts | 209° |
| 2026-04-26 11:21 | 55.05301 | -5.01194 | 24616 ft | 407 kts | 209° |
| 2026-04-26 11:22 | 55.02766 | -5.03400 | 24991 ft | 408 kts | 209° |
| 2026-04-26 11:22 | 55.00218 | -5.05618 | 25350 ft | 410 kts | 209° |
| 2026-04-26 11:22 | 54.97666 | -5.07833 | 25705 ft | 411 kts | 209° |
| 2026-04-26 11:22 | 54.95103 | -5.10051 | 26058 ft | 412 kts | 209° |
| 2026-04-26 11:23 | 54.92527 | -5.12268 | 26401 ft | 414 kts | 209° |
| 2026-04-26 11:23 | 54.89941 | -5.14495 | 26765 ft | 415 kts | 209° |
| 2026-04-26 11:23 | 54.87331 | -5.16679 | 27082 ft | 418 kts | 207° |
| 2026-04-26 11:23 | 54.84654 | -5.18679 | 27413 ft | 420 kts | 205° |
| 2026-04-26 11:24 | 54.81926 | -5.20540 | 27733 ft | 422 kts | 204° |
| 2026-04-26 11:24 | 54.79171 | -5.22323 | 28050 ft | 424 kts | 203° |
| 2026-04-26 11:24 | 54.76395 | -5.24091 | 28363 ft | 425 kts | 203° |
| 2026-04-26 11:24 | 54.73621 | -5.25881 | 28651 ft | 426 kts | 204° |
| 2026-04-26 11:25 | 54.71616 | -5.27199 | 28868 ft | 427 kts | 204° |
| 2026-04-26 11:25 | 54.68718 | -5.29134 | 29166 ft | 429 kts | 205° |
| 2026-04-26 11:25 | 54.65965 | -5.30994 | 29447 ft | 430 kts | 205° |
| 2026-04-26 11:25 | 54.63171 | -5.32890 | 29697 ft | 431 kts | 205° |
| 2026-04-26 11:26 | 54.60373 | -5.34788 | 29948 ft | 433 kts | 205° |
| 2026-04-26 11:26 | 54.57566 | -5.36683 | 30210 ft | 435 kts | 205° |
| 2026-04-26 11:26 | 54.54742 | -5.38577 | 30501 ft | 435 kts | 204° |
| 2026-04-26 11:26 | 54.51886 | -5.40483 | 30855 ft | 432 kts | 204° |
| 2026-04-26 11:27 | 54.49098 | -5.42342 | 31204 ft | 430 kts | 205° |
| 2026-04-26 11:27 | 54.46312 | -5.44199 | 31549 ft | 428 kts | 205° |
| 2026-04-26 11:27 | 54.43538 | -5.46043 | 31887 ft | 427 kts | 205° |
| 2026-04-26 11:27 | 54.40776 | -5.47876 | 32222 ft | 425 kts | 205° |
| 2026-04-26 11:28 | 54.38025 | -5.49699 | 32548 ft | 423 kts | 205° |
| 2026-04-26 11:28 | 54.35282 | -5.51519 | 32858 ft | 422 kts | 205° |
| 2026-04-26 11:28 | 54.32546 | -5.53334 | 33161 ft | 421 kts | 205° |
| 2026-04-26 11:28 | 54.29821 | -5.55139 | 33478 ft | 420 kts | 205° |
| 2026-04-26 11:29 | 54.27098 | -5.56938 | 33803 ft | 418 kts | 205° |
| 2026-04-26 11:29 | 54.24367 | -5.58642 | 34127 ft | 418 kts | 204° |
| 2026-04-26 11:29 | 54.21614 | -5.60234 | 34418 ft | 417 kts | 202° |
| 2026-04-26 11:29 | 54.18850 | -5.61759 | 34657 ft | 417 kts | 202° |
| 2026-04-26 11:30 | 54.16074 | -5.63270 | 34870 ft | 418 kts | 202° |
| 2026-04-26 11:30 | 54.14250 | -5.64269 | 35007 ft | 418 kts | 202° |
| 2026-04-26 11:30 | 54.10548 | -5.66321 | 35262 ft | 418 kts | 202° |
| 2026-04-26 11:30 | 54.07781 | -5.67873 | 35459 ft | 419 kts | 202° |
| 2026-04-26 11:31 | 54.04977 | -5.69452 | 35651 ft | 419 kts | 202° |
| 2026-04-26 11:31 | 54.02199 | -5.71014 | 35826 ft | 420 kts | 202° |
| 2026-04-26 11:31 | 53.99426 | -5.72571 | 36008 ft | 421 kts | 202° |
| 2026-04-26 11:31 | 53.96706 | -5.74191 | 36184 ft | 419 kts | 206° |
| 2026-04-26 11:32 | 53.91517 | -5.78754 | 36277 ft | 417 kts | 211° |
| 2026-04-26 11:32 | 53.86401 | -5.83419 | 36277 ft | 418 kts | 211° |
| 2026-04-26 11:33 | 53.81274 | -5.88060 | 36278 ft | 418 kts | 211° |
| 2026-04-26 11:33 | 53.76153 | -5.92693 | 36277 ft | 418 kts | 211° |
| 2026-04-26 11:34 | 53.71028 | -5.97331 | 36277 ft | 418 kts | 211° |
| 2026-04-26 11:34 | 53.65904 | -6.01946 | 36277 ft | 418 kts | 211° |
| 2026-04-26 11:35 | 53.60774 | -6.06545 | 36274 ft | 418 kts | 211° |
| 2026-04-26 11:35 | 53.56479 | -6.10383 | 36271 ft | 417 kts | 211° |
| 2026-04-26 11:36 | 53.50489 | -6.15723 | 36270 ft | 417 kts | 211° |
| 2026-04-26 11:36 | 53.45366 | -6.20281 | 36276 ft | 417 kts | 210° |
| 2026-04-26 11:37 | 53.40249 | -6.24822 | 36275 ft | 416 kts | 210° |
| 2026-04-26 11:37 | 53.35137 | -6.29347 | 36275 ft | 415 kts | 210° |
| 2026-04-26 11:38 | 53.30025 | -6.33865 | 36274 ft | 416 kts | 210° |
| 2026-04-26 11:38 | 53.24908 | -6.38364 | 36275 ft | 416 kts | 210° |
| 2026-04-26 11:39 | 53.19790 | -6.42855 | 36274 ft | 415 kts | 210° |
| 2026-04-26 11:39 | 53.14674 | -6.47339 | 36272 ft | 415 kts | 210° |
| 2026-04-26 11:40 | 53.09559 | -6.51807 | 36273 ft | 415 kts | 210° |
| 2026-04-26 11:40 | 53.04433 | -6.56264 | 36275 ft | 416 kts | 210° |
| 2026-04-26 11:42 | 52.83904 | -6.74011 | 36272 ft | 415 kts | 210° |
| 2026-04-26 11:43 | 52.78784 | -6.78413 | 36279 ft | 415 kts | 209° |
| 2026-04-26 11:43 | 52.73645 | -6.82807 | 36276 ft | 416 kts | 209° |
| 2026-04-26 11:44 | 52.68507 | -6.87190 | 36274 ft | 416 kts | 209° |
| 2026-04-26 11:44 | 52.63369 | -6.91570 | 36268 ft | 416 kts | 209° |
| 2026-04-26 11:45 | 52.58233 | -6.95944 | 36279 ft | 416 kts | 209° |
| 2026-04-26 11:45 | 52.53051 | -7.00348 | 36284 ft | 417 kts | 208° |
| 2026-04-26 11:46 | 52.47897 | -7.04705 | 36284 ft | 417 kts | 208° |
| 2026-04-26 11:46 | 52.42735 | -7.09057 | 36292 ft | 417 kts | 208° |
| 2026-04-26 11:47 | 52.37573 | -7.13393 | 36290 ft | 417 kts | 208° |
| 2026-04-26 11:47 | 52.32412 | -7.17723 | 36292 ft | 417 kts | 208° |
| 2026-04-26 11:48 | 52.27241 | -7.22046 | 36300 ft | 418 kts | 208° |
| 2026-04-26 11:48 | 52.22063 | -7.26360 | 36300 ft | 418 kts | 208° |
| 2026-04-26 11:49 | 52.16877 | -7.30674 | 36299 ft | 418 kts | 208° |
| 2026-04-26 11:49 | 52.11693 | -7.34968 | 36296 ft | 418 kts | 208° |
| 2026-04-26 11:50 | 52.06503 | -7.39258 | 36296 ft | 418 kts | 208° |
| 2026-04-26 11:50 | 52.01312 | -7.43553 | 36287 ft | 419 kts | 208° |
| 2026-04-26 11:51 | 51.96106 | -7.47846 | 36286 ft | 420 kts | 207° |
| 2026-04-26 11:51 | 51.90899 | -7.52111 | 36284 ft | 420 kts | 207° |
| 2026-04-26 11:52 | 51.86569 | -7.55652 | 36286 ft | 420 kts | 207° |
| 2026-04-26 11:52 | 51.80480 | -7.60633 | 36289 ft | 420 kts | 207° |
| 2026-04-26 11:53 | 51.75268 | -7.64898 | 36287 ft | 420 kts | 207° |
| 2026-04-26 11:54 | 51.67434 | -7.71260 | 36294 ft | 420 kts | 207° |
| 2026-04-26 11:54 | 51.63051 | -7.74791 | 36307 ft | 420 kts | 207° |
| 2026-04-26 11:55 | 51.57822 | -7.79004 | 36286 ft | 421 kts | 207° |
| 2026-04-26 11:55 | 51.52589 | -7.83229 | 36291 ft | 421 kts | 207° |
| 2026-04-26 11:56 | 51.47350 | -7.87442 | 36297 ft | 422 kts | 207° |
| 2026-04-26 11:56 | 51.42103 | -7.91654 | 36298 ft | 422 kts | 207° |
| 2026-04-26 11:57 | 51.36850 | -7.95846 | 36298 ft | 422 kts | 207° |
| 2026-04-26 11:57 | 51.31603 | -8.00033 | 36298 ft | 422 kts | 207° |
| 2026-04-26 11:58 | 51.26351 | -8.04219 | 36301 ft | 422 kts | 206° |
| 2026-04-26 11:58 | 51.21091 | -8.08386 | 36301 ft | 422 kts | 206° |
| 2026-04-26 11:59 | 51.15821 | -8.12543 | 36300 ft | 423 kts | 206° |
| 2026-04-26 11:59 | 51.10544 | -8.16703 | 36304 ft | 423 kts | 206° |
| 2026-04-26 12:00 | 51.05264 | -8.20856 | 36307 ft | 423 kts | 206° |
| 2026-04-26 12:00 | 50.99919 | -8.24798 | 36313 ft | 424 kts | 198° |
| 2026-04-26 12:01 | 50.94179 | -8.26915 | 36312 ft | 424 kts | 192° |
| 2026-04-26 12:01 | 50.88397 | -8.28797 | 36309 ft | 424 kts | 192° |
| 2026-04-26 12:02 | 50.82571 | -8.30703 | 36313 ft | 424 kts | 192° |
| 2026-04-26 12:02 | 50.76789 | -8.32593 | 36312 ft | 424 kts | 192° |
| 2026-04-26 12:03 | 50.71005 | -8.34469 | 36314 ft | 424 kts | 192° |
| 2026-04-26 12:03 | 50.65220 | -8.36357 | 36313 ft | 424 kts | 192° |
| 2026-04-26 12:04 | 50.59438 | -8.38225 | 36310 ft | 424 kts | 192° |
| 2026-04-26 12:04 | 50.53641 | -8.40091 | 36314 ft | 426 kts | 192° |
| 2026-04-26 12:05 | 50.47827 | -8.41950 | 36318 ft | 427 kts | 192° |
| 2026-04-26 12:05 | 50.42009 | -8.43805 | 36316 ft | 427 kts | 192° |
| 2026-04-26 12:06 | 50.36187 | -8.45660 | 36316 ft | 427 kts | 192° |
| 2026-04-26 12:06 | 50.30366 | -8.47519 | 36315 ft | 427 kts | 192° |
| 2026-04-26 12:07 | 50.24541 | -8.49375 | 36311 ft | 427 kts | 192° |
| 2026-04-26 12:07 | 50.18721 | -8.51238 | 36315 ft | 427 kts | 192° |
| 2026-04-26 12:08 | 50.12901 | -8.53084 | 36316 ft | 427 kts | 192° |
| 2026-04-26 12:08 | 50.07079 | -8.54924 | 36315 ft | 426 kts | 192° |
| 2026-04-26 12:09 | 50.01266 | -8.56753 | 36313 ft | 426 kts | 192° |
| 2026-04-26 12:09 | 49.95451 | -8.58574 | 36315 ft | 426 kts | 192° |
| 2026-04-26 12:10 | 49.89638 | -8.60397 | 36315 ft | 426 kts | 192° |
| 2026-04-26 12:10 | 49.83829 | -8.62230 | 36313 ft | 426 kts | 192° |
| 2026-04-26 12:11 | 49.78018 | -8.64044 | 36319 ft | 426 kts | 192° |
| 2026-04-26 12:11 | 49.72192 | -8.65853 | 36316 ft | 427 kts | 192° |
| 2026-04-26 12:12 | 49.66333 | -8.67674 | 36318 ft | 427 kts | 192° |
| 2026-04-26 12:12 | 49.60513 | -8.69471 | 36317 ft | 426 kts | 192° |
| 2026-04-26 12:13 | 49.54693 | -8.71267 | 36314 ft | 426 kts | 192° |
| 2026-04-26 12:13 | 49.48878 | -8.73057 | 36315 ft | 426 kts | 192° |
| 2026-04-26 12:14 | 49.43067 | -8.74852 | 36316 ft | 426 kts | 192° |
| 2026-04-26 12:14 | 49.37252 | -8.76640 | 36318 ft | 426 kts | 192° |
| 2026-04-26 12:15 | 49.31445 | -8.78420 | 36319 ft | 425 kts | 192° |
| 2026-04-26 12:15 | 49.25642 | -8.80188 | 36317 ft | 425 kts | 192° |
| 2026-04-26 12:16 | 49.19833 | -8.81958 | 36320 ft | 425 kts | 192° |
| 2026-04-26 12:16 | 49.14032 | -8.83727 | 36318 ft | 425 kts | 192° |
| 2026-04-26 12:17 | 49.08234 | -8.85480 | 36328 ft | 425 kts | 192° |
| 2026-04-26 12:17 | 49.02428 | -8.87226 | 36319 ft | 425 kts | 192° |
| 2026-04-26 12:18 | 48.96622 | -8.88970 | 36315 ft | 426 kts | 192° |
| 2026-04-26 12:18 | 48.90820 | -8.90726 | 36315 ft | 424 kts | 192° |
| 2026-04-26 12:19 | 48.85033 | -8.92468 | 36318 ft | 424 kts | 192° |
| 2026-04-26 12:19 | 48.79243 | -8.94209 | 36317 ft | 424 kts | 192° |
| 2026-04-26 12:20 | 48.73454 | -8.95949 | 36318 ft | 424 kts | 192° |
| 2026-04-26 12:20 | 48.67671 | -8.97670 | 36318 ft | 423 kts | 192° |
| 2026-04-26 12:21 | 48.61888 | -8.99387 | 36318 ft | 423 kts | 192° |
| 2026-04-26 12:21 | 48.56016 | -9.00015 | 36318 ft | 425 kts | 182° |
| 2026-04-26 12:22 | 48.50093 | -9.00003 | 36315 ft | 425 kts | 181° |
| 2026-04-26 12:22 | 48.44174 | -8.99993 | 36315 ft | 425 kts | 182° |
| 2026-04-26 12:23 | 48.38257 | -8.99992 | 36316 ft | 425 kts | 182° |
| 2026-04-26 12:23 | 48.32334 | -8.99990 | 36315 ft | 425 kts | 182° |
| 2026-04-26 12:24 | 48.26415 | -8.99996 | 36315 ft | 425 kts | 182° |
| 2026-04-26 12:24 | 48.20506 | -8.99998 | 36315 ft | 425 kts | 182° |
| 2026-04-26 12:25 | 48.11637 | -8.99986 | 36315 ft | 425 kts | 182° |
| 2026-04-26 12:25 | 48.05729 | -8.99996 | 36313 ft | 424 kts | 182° |
| 2026-04-26 12:26 | 47.99822 | -9.00005 | 36315 ft | 424 kts | 182° |
| 2026-04-26 12:26 | 47.93919 | -8.99996 | 36315 ft | 424 kts | 182° |
| 2026-04-26 12:27 | 47.88012 | -8.99982 | 36315 ft | 424 kts | 182° |
| 2026-04-26 12:27 | 47.82112 | -8.99987 | 36315 ft | 424 kts | 182° |
| 2026-04-26 12:28 | 47.76215 | -8.99994 | 36315 ft | 424 kts | 182° |
| 2026-04-26 12:28 | 47.70315 | -8.99999 | 36315 ft | 424 kts | 182° |
| 2026-04-26 12:29 | 47.64414 | -8.99997 | 36303 ft | 424 kts | 183° |
| 2026-04-26 12:30 | 47.55563 | -8.99999 | 36312 ft | 424 kts | 183° |
| 2026-04-26 12:30 | 47.50622 | -8.99996 | 36312 ft | 424 kts | 183° |
| 2026-04-26 12:31 | 47.41778 | -8.99989 | 36309 ft | 424 kts | 183° |
| 2026-04-26 12:31 | 47.35887 | -8.99988 | 36312 ft | 423 kts | 183° |
| 2026-04-26 12:32 | 47.29995 | -8.99995 | 36307 ft | 424 kts | 183° |
| 2026-04-26 12:33 | 47.21149 | -8.99992 | 36305 ft | 423 kts | 183° |
| 2026-04-26 12:33 | 47.15261 | -8.99996 | 36306 ft | 423 kts | 183° |
| 2026-04-26 12:34 | 47.09376 | -8.99994 | 36308 ft | 423 kts | 183° |
| 2026-04-26 12:34 | 47.03486 | -8.99989 | 36306 ft | 423 kts | 183° |
| 2026-04-26 12:35 | 46.97601 | -9.00000 | 36303 ft | 423 kts | 184° |
| 2026-04-26 12:35 | 46.91718 | -8.99999 | 36302 ft | 423 kts | 184° |
| 2026-04-26 12:36 | 46.85796 | -8.99995 | 36302 ft | 423 kts | 184° |
| 2026-04-26 12:36 | 46.79946 | -9.00011 | 36297 ft | 423 kts | 184° |
| 2026-04-26 12:37 | 46.74051 | -9.00007 | 36299 ft | 424 kts | 184° |
| 2026-04-26 12:37 | 46.68155 | -9.00008 | 36299 ft | 424 kts | 184° |
| 2026-04-26 12:38 | 46.62221 | -9.00005 | 36299 ft | 424 kts | 184° |
| 2026-04-26 12:38 | 46.56330 | -9.00007 | 36301 ft | 423 kts | 184° |
| 2026-04-26 12:39 | 46.50444 | -8.99986 | 36295 ft | 423 kts | 184° |
| 2026-04-26 12:39 | 46.44560 | -8.99991 | 36295 ft | 423 kts | 184° |
| 2026-04-26 12:40 | 46.38680 | -8.99999 | 36294 ft | 423 kts | 184° |
| 2026-04-26 12:40 | 46.32835 | -9.00003 | 36296 ft | 423 kts | 184° |
| 2026-04-26 12:41 | 46.26909 | -9.00005 | 36291 ft | 423 kts | 184° |
| 2026-04-26 12:41 | 46.21063 | -9.00011 | 36280 ft | 423 kts | 184° |
| 2026-04-26 12:42 | 46.15183 | -9.00014 | 36292 ft | 422 kts | 184° |
| 2026-04-26 12:42 | 46.09307 | -9.00012 | 36286 ft | 422 kts | 184° |
| 2026-04-26 12:43 | 46.03387 | -9.00001 | 36285 ft | 422 kts | 184° |
| 2026-04-26 12:43 | 45.97556 | -8.99992 | 36288 ft | 421 kts | 184° |
| 2026-04-26 12:44 | 45.91660 | -8.99993 | 36284 ft | 421 kts | 184° |
| 2026-04-26 12:44 | 45.85810 | -8.99991 | 36282 ft | 421 kts | 184° |
| 2026-04-26 12:45 | 45.79954 | -8.99996 | 36261 ft | 420 kts | 185° |
| 2026-04-26 12:45 | 45.74119 | -9.00005 | 36280 ft | 419 kts | 184° |
| 2026-04-26 12:46 | 45.68285 | -8.99996 | 36279 ft | 419 kts | 185° |
| 2026-04-26 12:46 | 45.62455 | -9.00002 | 36275 ft | 419 kts | 185° |
| 2026-04-26 12:47 | 45.56622 | -9.00010 | 36292 ft | 420 kts | 185° |
| 2026-04-26 12:47 | 45.50802 | -9.00004 | 36275 ft | 421 kts | 185° |
| 2026-04-26 12:48 | 45.44940 | -8.99992 | 36275 ft | 422 kts | 185° |
| 2026-04-26 12:48 | 45.39037 | -9.00002 | 36272 ft | 421 kts | 185° |
| 2026-04-26 12:49 | 45.33171 | -9.00007 | 36269 ft | 421 kts | 185° |
| 2026-04-26 12:49 | 45.27311 | -8.99993 | 36269 ft | 421 kts | 185° |
| 2026-04-26 12:50 | 45.21450 | -8.99981 | 36251 ft | 421 kts | 185° |
| 2026-04-26 12:50 | 45.15587 | -8.99994 | 36265 ft | 421 kts | 185° |
| 2026-04-26 12:51 | 45.09731 | -9.00001 | 36259 ft | 421 kts | 185° |
| 2026-04-26 12:51 | 45.03904 | -8.99997 | 36256 ft | 421 kts | 184° |
| 2026-04-26 12:52 | 44.97956 | -8.99769 | 36466 ft | 424 kts | 182° |
| 2026-04-26 12:52 | 44.95005 | -8.99474 | 36685 ft | 425 kts | 180° |
| 2026-04-26 12:52 | 44.92058 | -8.99082 | 36897 ft | 426 kts | 179° |
| 2026-04-26 12:52 | 44.89106 | -8.98638 | 37100 ft | 426 kts | 179° |
| 2026-04-26 12:53 | 44.86157 | -8.98185 | 37236 ft | 427 kts | 179° |
| 2026-04-26 12:53 | 44.80225 | -8.97314 | 37257 ft | 426 kts | 180° |
| 2026-04-26 12:54 | 44.74323 | -8.96530 | 37249 ft | 426 kts | 180° |
| 2026-04-26 12:54 | 44.68421 | -8.95765 | 37247 ft | 426 kts | 180° |
| 2026-04-26 12:55 | 44.62522 | -8.94991 | 37236 ft | 426 kts | 180° |
| 2026-04-26 12:55 | 44.56606 | -8.94207 | 37246 ft | 427 kts | 180° |
| 2026-04-26 12:56 | 44.50697 | -8.93427 | 37246 ft | 427 kts | 180° |
| 2026-04-26 12:56 | 44.44786 | -8.92636 | 37236 ft | 426 kts | 180° |
| 2026-04-26 12:57 | 44.38883 | -8.91851 | 37238 ft | 426 kts | 180° |
| 2026-04-26 12:57 | 44.32980 | -8.91084 | 37229 ft | 426 kts | 180° |
| 2026-04-26 12:58 | 44.24082 | -8.89927 | 37208 ft | 426 kts | 179° |
| 2026-04-26 12:58 | 44.18169 | -8.89149 | 37207 ft | 427 kts | 179° |
| 2026-04-26 12:59 | 44.12256 | -8.88368 | 37210 ft | 427 kts | 179° |
| 2026-04-26 12:59 | 44.06342 | -8.87589 | 37197 ft | 427 kts | 179° |
| 2026-04-26 13:00 | 44.00423 | -8.86821 | 37199 ft | 427 kts | 179° |
| 2026-04-26 13:00 | 43.94456 | -8.86050 | 37198 ft | 428 kts | 179° |
| 2026-04-26 13:01 | 43.88530 | -8.85277 | 37205 ft | 428 kts | 179° |
| 2026-04-26 13:01 | 43.83598 | -8.84642 | 37176 ft | 428 kts | 179° |
| 2026-04-26 13:02 | 43.77656 | -8.83879 | 37182 ft | 429 kts | 179° |
| 2026-04-26 13:02 | 43.71707 | -8.83108 | 37191 ft | 430 kts | 179° |
| 2026-04-26 13:03 | 43.65752 | -8.82341 | 37172 ft | 430 kts | 179° |
| 2026-04-26 13:03 | 43.59787 | -8.81576 | 37184 ft | 431 kts | 179° |
| 2026-04-26 13:04 | 43.53813 | -8.80806 | 37181 ft | 431 kts | 179° |
| 2026-04-26 13:04 | 43.47836 | -8.80049 | 37165 ft | 432 kts | 179° |
| 2026-04-26 13:05 | 43.41811 | -8.79274 | 37172 ft | 432 kts | 179° |
| 2026-04-26 13:05 | 43.35814 | -8.78504 | 37171 ft | 433 kts | 179° |
| 2026-04-26 13:06 | 43.29775 | -8.77740 | 37172 ft | 433 kts | 179° |
| 2026-04-26 13:06 | 43.23773 | -8.76972 | 37154 ft | 434 kts | 178° |
| 2026-04-26 13:07 | 43.17753 | -8.76207 | 37157 ft | 434 kts | 178° |
| 2026-04-26 13:07 | 43.11697 | -8.75449 | 37153 ft | 435 kts | 178° |
| 2026-04-26 13:08 | 43.05677 | -8.74695 | 37141 ft | 435 kts | 178° |
| 2026-04-26 13:08 | 42.99642 | -8.73940 | 37137 ft | 435 kts | 178° |
| 2026-04-26 13:09 | 42.93604 | -8.73183 | 37141 ft | 436 kts | 178° |
| 2026-04-26 13:09 | 42.87568 | -8.72414 | 37127 ft | 436 kts | 178° |
| 2026-04-26 13:10 | 42.81520 | -8.71651 | 37121 ft | 437 kts | 177° |
| 2026-04-26 13:10 | 42.75426 | -8.70892 | 37116 ft | 437 kts | 177° |
| 2026-04-26 13:11 | 42.69363 | -8.70139 | 37122 ft | 438 kts | 177° |
| 2026-04-26 13:11 | 42.63290 | -8.69382 | 37102 ft | 439 kts | 177° |
| 2026-04-26 13:12 | 42.57202 | -8.68628 | 37110 ft | 439 kts | 177° |
| 2026-04-26 13:12 | 42.51115 | -8.67879 | 37114 ft | 440 kts | 177° |
| 2026-04-26 13:13 | 42.45020 | -8.67126 | 37116 ft | 440 kts | 177° |
| 2026-04-26 13:13 | 42.38927 | -8.66373 | 37120 ft | 440 kts | 177° |
| 2026-04-26 13:14 | 42.32828 | -8.65615 | 37125 ft | 440 kts | 177° |
| 2026-04-26 13:14 | 42.26726 | -8.64854 | 37120 ft | 440 kts | 176° |
| 2026-04-26 13:15 | 42.20621 | -8.64102 | 37120 ft | 441 kts | 177° |
| 2026-04-26 13:15 | 42.15548 | -8.63494 | 37105 ft | 441 kts | 177° |
| 2026-04-26 13:16 | 42.08363 | -8.62625 | 37104 ft | 441 kts | 177° |
| 2026-04-26 13:16 | 42.02243 | -8.61870 | 37096 ft | 442 kts | 176° |
| 2026-04-26 13:17 | 41.93049 | -8.60742 | 37102 ft | 442 kts | 176° |
| 2026-04-26 13:18 | 41.83842 | -8.59662 | 37092 ft | 443 kts | 178° |
| 2026-04-26 13:19 | 41.74607 | -8.59300 | 37102 ft | 443 kts | 181° |
| 2026-04-26 13:19 | 41.68453 | -8.59198 | 37104 ft | 443 kts | 180° |
| 2026-04-26 13:20 | 41.62247 | -8.59013 | 37098 ft | 443 kts | 180° |
| 2026-04-26 13:20 | 41.56083 | -8.58785 | 37103 ft | 443 kts | 180° |
| 2026-04-26 13:21 | 41.49913 | -8.58564 | 37106 ft | 443 kts | 180° |
| 2026-04-26 13:21 | 41.43571 | -8.58351 | 37096 ft | 443 kts | 180° |
| 2026-04-26 13:22 | 41.37425 | -8.58140 | 37099 ft | 444 kts | 180° |
| 2026-04-26 13:22 | 41.31195 | -8.57924 | 37105 ft | 443 kts | 180° |
| 2026-04-26 13:23 | 41.26030 | -8.57747 | 37102 ft | 443 kts | 180° |
| 2026-04-26 13:23 | 41.19858 | -8.57539 | 37098 ft | 443 kts | 180° |
| 2026-04-26 13:24 | 41.13655 | -8.57334 | 37102 ft | 443 kts | 180° |
| 2026-04-26 13:24 | 41.07490 | -8.57122 | 37106 ft | 443 kts | 180° |
| 2026-04-26 13:25 | 41.01290 | -8.56901 | 37099 ft | 443 kts | 180° |
| 2026-04-26 13:25 | 40.95122 | -8.56687 | 37099 ft | 443 kts | 180° |
| 2026-04-26 13:26 | 40.88930 | -8.56477 | 37098 ft | 443 kts | 180° |
| 2026-04-26 13:26 | 40.82770 | -8.56272 | 37100 ft | 443 kts | 180° |
| 2026-04-26 13:27 | 40.76567 | -8.56076 | 37106 ft | 443 kts | 180° |
| 2026-04-26 13:27 | 40.70355 | -8.55871 | 37108 ft | 443 kts | 180° |
| 2026-04-26 13:28 | 40.64143 | -8.55660 | 37109 ft | 443 kts | 180° |
| 2026-04-26 13:28 | 40.58002 | -8.55872 | 37108 ft | 440 kts | 194° |
| 2026-04-26 13:29 | 40.52263 | -8.58576 | 37106 ft | 438 kts | 202° |
| 2026-04-26 13:29 | 40.46590 | -8.61518 | 37107 ft | 439 kts | 202° |
| 2026-04-26 13:30 | 40.40908 | -8.64465 | 37112 ft | 439 kts | 202° |
| 2026-04-26 13:30 | 40.35217 | -8.67402 | 37108 ft | 439 kts | 202° |
| 2026-04-26 13:31 | 40.29543 | -8.70312 | 37111 ft | 439 kts | 202° |
| 2026-04-26 13:31 | 40.23812 | -8.73245 | 37117 ft | 439 kts | 202° |
| 2026-04-26 13:32 | 40.18119 | -8.76161 | 37110 ft | 439 kts | 202° |
| 2026-04-26 13:32 | 40.12434 | -8.79071 | 37097 ft | 439 kts | 202° |
| 2026-04-26 13:33 | 40.06735 | -8.81975 | 37103 ft | 439 kts | 202° |
| 2026-04-26 13:33 | 40.01040 | -8.84874 | 37100 ft | 439 kts | 202° |
| 2026-04-26 13:34 | 39.95341 | -8.87776 | 37102 ft | 439 kts | 202° |
| 2026-04-26 13:34 | 39.89613 | -8.90687 | 37083 ft | 440 kts | 202° |
| 2026-04-26 13:34 | 39.87718 | -8.91648 | 36907 ft | 440 kts | 202° |
| 2026-04-26 13:35 | 39.83906 | -8.93582 | 36552 ft | 440 kts | 202° |
| 2026-04-26 13:35 | 39.81055 | -8.95025 | 36308 ft | 440 kts | 202° |
| 2026-04-26 13:35 | 39.78194 | -8.96470 | 35686 ft | 441 kts | 202° |
| 2026-04-26 13:35 | 39.75321 | -8.97916 | 34878 ft | 444 kts | 202° |
| 2026-04-26 13:36 | 39.72436 | -8.99369 | 34031 ft | 447 kts | 202° |
| 2026-04-26 13:36 | 39.69521 | -9.00838 | 33031 ft | 450 kts | 202° |
| 2026-04-26 13:36 | 39.66597 | -9.02312 | 32083 ft | 453 kts | 202° |
| 2026-04-26 13:36 | 39.63651 | -9.03799 | 31086 ft | 457 kts | 202° |
| 2026-04-26 13:37 | 39.60630 | -9.05320 | 29985 ft | 462 kts | 201° |
| 2026-04-26 13:37 | 39.57617 | -9.06833 | 28814 ft | 465 kts | 202° |
| 2026-04-26 13:37 | 39.54592 | -9.08349 | 27660 ft | 468 kts | 202° |
| 2026-04-26 13:37 | 39.51540 | -9.09877 | 26627 ft | 470 kts | 201° |
| 2026-04-26 13:38 | 39.48518 | -9.11391 | 25936 ft | 463 kts | 201° |
| 2026-04-26 13:38 | 39.45521 | -9.12894 | 25125 ft | 460 kts | 201° |
| 2026-04-26 13:38 | 39.42556 | -9.14376 | 24342 ft | 457 kts | 201° |
| 2026-04-26 13:38 | 39.39589 | -9.15857 | 23558 ft | 455 kts | 201° |
| 2026-04-26 13:39 | 39.36647 | -9.17323 | 22751 ft | 452 kts | 201° |
| 2026-04-26 13:39 | 39.33726 | -9.18778 | 22036 ft | 448 kts | 201° |
| 2026-04-26 13:39 | 39.30837 | -9.20217 | 21345 ft | 443 kts | 201° |
| 2026-04-26 13:39 | 39.27963 | -9.21648 | 20661 ft | 440 kts | 201° |
| 2026-04-26 13:40 | 39.25123 | -9.23057 | 20001 ft | 436 kts | 200° |
| 2026-04-26 13:40 | 39.22306 | -9.24456 | 19375 ft | 432 kts | 200° |
| 2026-04-26 13:40 | 39.19520 | -9.25840 | 18767 ft | 428 kts | 200° |
| 2026-04-26 13:40 | 39.16719 | -9.27229 | 18116 ft | 423 kts | 200° |
| 2026-04-26 13:41 | 39.13902 | -9.28186 | 16995 ft | 428 kts | 186° |
| 2026-04-26 13:41 | 39.10874 | -9.28428 | 16088 ft | 429 kts | 181° |
| 2026-04-26 13:41 | 39.07964 | -9.28594 | 15511 ft | 422 kts | 181° |
| 2026-04-26 13:41 | 39.05008 | -9.28748 | 14848 ft | 417 kts | 181° |
| 2026-04-26 13:42 | 39.02122 | -9.28894 | 14210 ft | 413 kts | 181° |
| 2026-04-26 13:42 | 38.99257 | -9.29041 | 13435 ft | 411 kts | 181° |
| 2026-04-26 13:42 | 38.96407 | -9.29190 | 12693 ft | 408 kts | 181° |
| 2026-04-26 13:42 | 38.93587 | -9.29342 | 11978 ft | 404 kts | 180° |
| 2026-04-26 13:43 | 38.90788 | -9.29497 | 11237 ft | 396 kts | 180° |
| 2026-04-26 13:43 | 38.88075 | -9.29651 | 10031 ft | 389 kts | 180° |
| 2026-04-26 13:43 | 38.85401 | -9.29804 | 8911 ft | 379 kts | 181° |
| 2026-04-26 13:43 | 38.82840 | -9.29952 | 8660 ft | 345 kts | 180° |
| 2026-04-26 13:44 | 38.80551 | -9.30087 | 8527 ft | 315 kts | 180° |
| 2026-04-26 13:44 | 38.79138 | -9.30170 | 8440 ft | 298 kts | 179° |
| 2026-04-26 13:44 | 38.77060 | -9.30286 | 8315 ft | 287 kts | 180° |
| 2026-04-26 13:44 | 38.75055 | -9.30390 | 7992 ft | 291 kts | 179° |
| 2026-04-26 13:45 | 38.73050 | -9.30493 | 7398 ft | 287 kts | 180° |
| 2026-04-26 13:45 | 38.70971 | -9.30600 | 6739 ft | 283 kts | 180° |
| 2026-04-26 13:45 | 38.69110 | -9.30698 | 6160 ft | 280 kts | 180° |
| 2026-04-26 13:45 | 38.67160 | -9.30802 | 5743 ft | 267 kts | 180° |
| 2026-04-26 13:46 | 38.65391 | -9.30903 | 5684 ft | 243 kts | 180° |
| 2026-04-26 13:46 | 38.63779 | -9.30999 | 5628 ft | 221 kts | 179° |
| 2026-04-26 13:46 | 38.62306 | -9.31084 | 5571 ft | 206 kts | 179° |
| 2026-04-26 13:46 | 38.60905 | -9.31162 | 5488 ft | 197 kts | 179° |
| 2026-04-26 13:47 | 38.59559 | -9.30952 | 5421 ft | 195 kts | 152° |
| 2026-04-26 13:47 | 38.58515 | -9.29928 | 5332 ft | 189 kts | 124° |
| 2026-04-26 13:47 | 38.57900 | -9.28445 | 5076 ft | 192 kts | 104° |
| 2026-04-26 13:47 | 38.57776 | -9.26717 | 4600 ft | 203 kts | 81° |
| 2026-04-26 13:48 | 38.58258 | -9.25000 | 4208 ft | 209 kts | 56° |
| 2026-04-26 13:48 | 38.59288 | -9.23698 | 3937 ft | 210 kts | 32° |
| 2026-04-26 13:48 | 38.60617 | -9.22927 | 3676 ft | 210 kts | 23° |
| 2026-04-26 13:48 | 38.61949 | -9.22224 | 3411 ft | 209 kts | 24° |
| 2026-04-26 13:49 | 38.63298 | -9.21508 | 3130 ft | 205 kts | 22° |
| 2026-04-26 13:49 | 38.64626 | -9.20802 | 2860 ft | 200 kts | 24° |
| 2026-04-26 13:49 | 38.65863 | -9.20143 | 2608 ft | 189 kts | 24° |
| 2026-04-26 13:49 | 38.67053 | -9.19510 | 2373 ft | 181 kts | 24° |
| 2026-04-26 13:50 | 38.68185 | -9.18906 | 2102 ft | 171 kts | 24° |
| 2026-04-26 13:50 | 38.69251 | -9.18337 | 1880 ft | 158 kts | 23° |
| 2026-04-26 13:50 | 38.70227 | -9.17816 | 1703 ft | 148 kts | 22° |
| 2026-04-26 13:50 | 38.71199 | -9.17298 | 1476 ft | 144 kts | 21° |
| 2026-04-26 13:51 | 38.72109 | -9.16811 | 1291 ft | 133 kts | 22° |
| 2026-04-26 13:51 | 38.72954 | -9.16371 | 1117 ft | 126 kts | 19° |
| 2026-04-26 13:51 | 38.73794 | -9.15928 | 957 ft | 124 kts | 25° |
| 2026-04-26 13:51 | 38.74576 | -9.15496 | 856 ft | 124 kts | 23° |
| 2026-04-26 13:52 | 38.75404 | -9.15061 | 664 ft | 124 kts | 24° |
| 2026-04-26 13:52 | 38.76207 | -9.14632 | 481 ft | 129 kts | 26° |
| 2026-04-26 13:52 | 38.77034 | -9.14201 | 382 ft | 123 kts | 26° |
| 2026-04-26 13:52 | 38.77732 | -9.13806 | 349 ft | 91 kts | 24° |
| 2026-04-26 13:53 | 38.78086 | -9.13612 | 353 ft | 25 kts | 21° |
| 2026-04-26 13:53 | 38.78237 | -9.13519 | 347 ft | 24 kts | 34° |
| 2026-04-26 13:53 | 38.78353 | -9.13379 | 348 ft | 18 kts | 49° |
| 2026-04-26 13:53 | 38.78372 | -9.13315 | 353 ft | 0 kts | 91° |
| 2026-04-26 13:55 | 38.78272 | -9.13288 | 350 ft | 18 kts | 200° |
| 2026-04-26 13:55 | 38.78231 | -9.13308 | 351 ft | 21 kts | 202° |
| 2026-04-26 13:55 | 38.77672 | -9.13321 | 352 ft | 37 kts | 174° |
| 2026-04-26 13:56 | 38.77477 | -9.13287 | 350 ft | 10 kts | 147° |
| 2026-04-26 13:56 | 38.77483 | -9.13219 | 354 ft | 8 kts | 82° |
| 2026-04-26 13:56 | 38.77489 | -9.13178 | 349 ft | 0 kts | 78° |